createdAt,value
2018-03-11T00:02:25.510Z,18.40
2018-03-11T00:04:53.250Z,18.40
2018-03-11T00:07:21.747Z,18.40
2018-03-11T00:09:49.482Z,18.30
2018-03-11T00:12:17.212Z,18.40
2018-03-11T00:14:44.945Z,18.30
2018-03-11T00:17:12.686Z,18.30
2018-03-11T00:19:41.191Z,18.20
2018-03-11T00:22:09.017Z,18.20
2018-03-11T00:24:36.755Z,18.20
2018-03-11T00:27:04.541Z,18.20
2018-03-11T00:29:32.275Z,18.10
2018-03-11T00:32:00.015Z,18.10
2018-03-11T00:34:27.754Z,18.20
2018-03-11T00:36:56.305Z,18.20
2018-03-11T00:39:24.083Z,18.20
2018-03-11T00:41:51.802Z,18.20
2018-03-11T00:44:19.547Z,18.20
2018-03-11T00:46:47.278Z,18.20
2018-03-11T00:49:15.778Z,18.20
2018-03-11T00:51:44.282Z,18.20
2018-03-11T00:54:12.018Z,18.20
2018-03-11T00:56:40.513Z,18.20
2018-03-11T00:59:08.249Z,18.10
2018-03-11T01:01:36.759Z,18.10
2018-03-11T01:04:04.558Z,18.10
2018-03-11T01:06:32.298Z,18.10
2018-03-11T01:09:00.046Z,18.10
2018-03-11T01:11:27.825Z,18.10
2018-03-11T01:13:55.558Z,18.00
2018-03-11T01:16:24.051Z,18.00
2018-03-11T01:18:51.802Z,18.00
2018-03-11T01:21:20.307Z,17.90
2018-03-11T01:23:48.034Z,18.00
2018-03-11T01:26:15.771Z,18.00
2018-03-11T01:28:44.254Z,17.90
2018-03-11T01:31:11.988Z,17.90
2018-03-11T01:33:39.702Z,17.80
2018-03-11T01:36:07.443Z,17.80
2018-03-11T01:38:35.165Z,17.70
2018-03-11T01:41:02.933Z,17.60
2018-03-11T01:43:30.682Z,17.50
2018-03-11T01:45:58.461Z,17.10
2018-03-11T01:48:26.218Z,16.70
2018-03-11T01:50:53.954Z,16.40
2018-03-11T01:53:22.474Z,16.20
2018-03-11T01:55:50.210Z,16.10
2018-03-11T01:58:18.702Z,16.00
2018-03-11T02:00:46.466Z,15.90
2018-03-11T02:03:14.194Z,16.00
2018-03-11T02:05:41.913Z,15.90
2018-03-11T02:08:09.639Z,15.90
2018-03-11T02:10:38.139Z,16.00
2018-03-11T02:13:05.894Z,16.00
2018-03-11T02:15:33.631Z,16.00
2018-03-11T02:18:01.414Z,16.10
2018-03-11T02:20:29.906Z,16.20
2018-03-11T02:22:57.678Z,16.10
2018-03-11T02:25:25.432Z,16.20
2018-03-11T02:27:53.170Z,16.30
2018-03-11T02:30:20.925Z,16.30
2018-03-11T02:32:48.668Z,16.30
2018-03-11T02:35:16.408Z,16.30
2018-03-11T02:37:44.145Z,16.30
2018-03-11T02:40:12.639Z,16.20
2018-03-11T02:42:40.438Z,16.20
2018-03-11T02:45:08.166Z,16.20
2018-03-11T02:47:35.895Z,16.10
2018-03-11T02:50:03.740Z,16.10
2018-03-11T02:52:31.469Z,16.10
2018-03-11T02:54:59.189Z,16.10
2018-03-11T02:57:26.926Z,16.20
2018-03-11T02:59:54.678Z,16.20
2018-03-11T03:02:23.174Z,16.20
2018-03-11T03:04:50.905Z,16.20
2018-03-11T03:07:18.638Z,16.20
2018-03-11T03:09:47.138Z,16.20
2018-03-11T03:12:14.878Z,16.20
2018-03-11T03:14:43.375Z,16.30
2018-03-11T03:17:11.110Z,16.30
2018-03-11T03:19:38.858Z,16.30
2018-03-11T03:22:06.685Z,16.30
2018-03-11T03:24:35.130Z,16.30
2018-03-11T03:27:03.627Z,16.30
2018-03-11T03:29:31.364Z,16.40
2018-03-11T03:31:59.896Z,16.40
2018-03-11T03:34:27.619Z,16.40
2018-03-11T03:36:56.110Z,16.30
2018-03-11T03:39:24.607Z,16.20
2018-03-11T03:41:52.341Z,16.20
2018-03-11T03:44:20.846Z,16.20
2018-03-11T03:46:48.585Z,16.20
2018-03-11T03:49:17.117Z,16.10
2018-03-11T03:51:44.849Z,16.10
2018-03-11T03:54:12.584Z,16.10
2018-03-11T03:56:40.358Z,16.20
2018-03-11T03:59:08.854Z,16.20
2018-03-11T04:01:37.353Z,16.20
2018-03-11T04:04:05.098Z,16.20
2018-03-11T04:06:33.602Z,16.20
2018-03-11T04:09:01.347Z,16.30
2018-03-11T04:11:29.088Z,16.20
2018-03-11T04:13:57.578Z,16.10
2018-03-11T04:16:26.071Z,16.10
2018-03-11T04:18:53.829Z,16.10
2018-03-11T04:21:22.328Z,16.20
2018-03-11T04:23:50.062Z,16.20
2018-03-11T04:26:18.558Z,16.20
2018-03-11T04:28:46.350Z,16.20
2018-03-11T04:31:14.074Z,16.20
2018-03-11T04:33:42.566Z,16.20
2018-03-11T04:36:11.079Z,16.20
2018-03-11T04:38:38.820Z,16.20
2018-03-11T04:41:06.557Z,16.20
2018-03-11T04:43:35.090Z,16.10
2018-03-11T04:46:02.824Z,16.10
2018-03-11T04:48:30.548Z,16.20
2018-03-11T04:50:58.278Z,16.10
2018-03-11T04:53:26.007Z,16.10
2018-03-11T04:55:54.579Z,16.10
2018-03-11T04:58:23.872Z,16.10
2018-03-11T05:00:52.408Z,16.20
2018-03-11T05:03:20.142Z,16.20
2018-03-11T05:05:47.918Z,16.20
2018-03-11T05:08:15.648Z,16.10
2018-03-11T05:10:44.137Z,16.00
2018-03-11T05:13:12.647Z,15.90
2018-03-11T05:15:40.374Z,15.90
2018-03-11T05:18:08.873Z,15.90
2018-03-11T05:20:36.607Z,15.90
2018-03-11T05:23:04.336Z,15.90
2018-03-11T05:25:32.064Z,15.90
2018-03-11T05:27:59.786Z,15.90
2018-03-11T05:30:27.515Z,15.90
2018-03-11T05:32:55.251Z,15.90
2018-03-11T05:35:22.975Z,15.90
2018-03-11T05:37:50.734Z,15.90
2018-03-11T05:40:18.486Z,15.80
2018-03-11T05:42:46.220Z,15.90
2018-03-11T05:45:13.961Z,15.90
2018-03-11T05:47:42.447Z,15.90
2018-03-11T05:50:10.950Z,15.90
2018-03-11T05:52:38.677Z,15.90
2018-03-11T05:55:07.174Z,15.90
2018-03-11T05:57:34.896Z,15.90
2018-03-11T06:00:02.625Z,15.90
2018-03-11T06:02:30.342Z,15.90
2018-03-11T06:04:58.829Z,15.90
2018-03-11T06:07:27.313Z,15.90
2018-03-11T06:09:55.811Z,15.80
2018-03-11T06:12:23.532Z,15.80
2018-03-11T06:14:51.258Z,15.80
2018-03-11T06:17:18.986Z,15.90
2018-03-11T06:19:47.474Z,15.80
2018-03-11T06:22:15.966Z,15.70
2018-03-11T06:24:43.702Z,15.70
2018-03-11T06:27:11.436Z,15.70
2018-03-11T06:29:39.174Z,15.70
2018-03-11T06:32:06.901Z,15.70
2018-03-11T06:34:35.398Z,15.80
2018-03-11T06:37:03.125Z,15.80
2018-03-11T06:39:30.847Z,15.80
2018-03-11T06:41:58.578Z,15.80
2018-03-11T06:44:26.310Z,15.80
2018-03-11T06:46:54.040Z,15.80
2018-03-11T06:49:21.821Z,15.80
2018-03-11T06:51:49.562Z,15.80
2018-03-11T06:54:17.295Z,15.80
2018-03-11T06:56:45.026Z,15.80
2018-03-11T06:59:12.754Z,15.80
2018-03-11T07:01:40.478Z,15.80
2018-03-11T07:04:09.162Z,15.80
2018-03-11T07:06:37.658Z,15.80
2018-03-11T07:09:05.462Z,15.80
2018-03-11T07:11:33.217Z,15.80
2018-03-11T07:14:01.734Z,15.80
2018-03-11T07:16:29.510Z,15.80
2018-03-11T07:18:57.990Z,15.80
2018-03-11T07:21:26.474Z,15.70
2018-03-11T07:23:54.962Z,15.70
2018-03-11T07:26:23.451Z,15.80
2018-03-11T07:28:51.187Z,15.80
2018-03-11T07:31:19.697Z,15.80
2018-03-11T07:33:47.467Z,15.70
2018-03-11T07:36:15.246Z,15.80
2018-03-11T07:38:42.982Z,15.70
2018-03-11T07:41:10.790Z,15.80
2018-03-11T07:43:38.708Z,15.70
2018-03-11T07:46:06.505Z,15.70
2018-03-11T07:48:34.385Z,15.70
2018-03-11T07:51:02.100Z,15.80
2018-03-11T07:53:30.610Z,15.90
2018-03-11T07:55:58.347Z,15.90
2018-03-11T07:58:26.872Z,15.90
2018-03-11T08:00:54.618Z,15.90
2018-03-11T08:03:22.358Z,15.90
2018-03-11T08:05:50.876Z,15.90
2018-03-11T08:08:18.666Z,15.90
2018-03-11T08:10:46.410Z,16.00
2018-03-11T08:13:14.140Z,16.00
2018-03-11T08:15:41.875Z,16.10
2018-03-11T08:18:10.412Z,16.20
2018-03-11T08:20:38.129Z,16.20
2018-03-11T08:23:06.666Z,16.30
2018-03-11T08:25:34.418Z,16.30
2018-03-11T08:28:02.149Z,16.30
2018-03-11T08:30:30.666Z,16.40
2018-03-11T08:32:58.398Z,16.40
2018-03-11T08:35:26.130Z,16.40
2018-03-11T08:37:53.860Z,16.50
2018-03-11T08:40:21.606Z,16.40
2018-03-11T08:42:49.359Z,16.50
2018-03-11T08:45:17.095Z,16.50
2018-03-11T08:47:45.655Z,16.60
2018-03-11T08:50:13.399Z,16.60
2018-03-11T08:52:41.127Z,16.60
2018-03-11T08:55:08.989Z,16.70
2018-03-11T08:57:36.719Z,16.70
2018-03-11T09:00:05.048Z,16.70
2018-03-11T09:02:32.895Z,16.80
2018-03-11T09:05:00.741Z,16.80
2018-03-11T09:07:30.811Z,16.80
2018-03-11T09:09:59.632Z,16.90
2018-03-11T09:12:27.436Z,16.90
2018-03-11T09:14:59.598Z,16.90
2018-03-11T09:17:27.486Z,16.90
2018-03-11T09:19:55.218Z,17.00
2018-03-11T09:22:24.110Z,17.10
2018-03-11T09:24:54.406Z,17.10
2018-03-11T09:27:22.166Z,17.20
2018-03-11T09:29:49.941Z,17.20
2018-03-11T09:32:17.669Z,17.30
2018-03-11T09:34:45.461Z,17.30
2018-03-11T09:37:13.191Z,17.40
2018-03-11T09:39:40.922Z,17.40
2018-03-11T09:42:08.659Z,17.40
2018-03-11T09:44:36.380Z,17.40
2018-03-11T09:47:04.150Z,17.50
2018-03-11T09:49:31.882Z,17.50
2018-03-11T09:51:59.618Z,17.50
2018-03-11T09:54:28.137Z,17.60
2018-03-11T09:56:55.878Z,17.50
2018-03-11T09:59:23.654Z,17.60
2018-03-11T10:01:51.411Z,17.70
2018-03-11T10:04:22.402Z,17.80
2018-03-11T10:06:51.226Z,17.80
2018-03-11T10:09:19.928Z,17.80
2018-03-11T10:11:47.809Z,17.80
2018-03-11T10:14:15.563Z,17.80
2018-03-11T10:16:43.306Z,17.80
2018-03-11T10:19:11.832Z,17.80
2018-03-11T10:21:39.554Z,17.90
2018-03-11T10:24:08.102Z,17.90
2018-03-11T10:26:35.826Z,17.90
2018-03-11T10:29:03.633Z,17.90
2018-03-11T10:31:31.404Z,17.90
2018-03-11T10:33:59.152Z,17.90
2018-03-11T10:36:26.936Z,18.00
2018-03-11T10:38:54.771Z,18.00
2018-03-11T10:41:22.502Z,18.00
2018-03-11T10:43:50.355Z,18.00
2018-03-11T10:46:18.123Z,18.10
2018-03-11T10:48:46.606Z,18.00
2018-03-11T10:51:14.520Z,18.00
2018-03-11T10:53:42.266Z,18.00
2018-03-11T10:56:10.002Z,18.00
2018-03-11T10:58:37.726Z,17.90
2018-03-11T11:01:11.110Z,17.90
2018-03-11T11:03:38.926Z,18.00
2018-03-11T11:06:06.775Z,18.00
2018-03-11T11:08:34.466Z,17.90
2018-03-11T11:11:02.190Z,17.90
2018-03-11T11:13:29.917Z,18.00
2018-03-11T11:15:57.642Z,18.00
2018-03-11T11:18:26.150Z,18.00
2018-03-11T11:20:53.884Z,18.00
2018-03-11T11:23:21.747Z,18.10
2018-03-11T11:25:50.294Z,18.20
2018-03-11T11:28:18.028Z,18.10
2018-03-11T11:30:45.788Z,18.20
2018-03-11T11:33:13.518Z,18.30
2018-03-11T11:35:42.040Z,18.30
2018-03-11T11:38:09.777Z,18.30
2018-03-11T11:40:37.504Z,18.30
2018-03-11T11:43:05.250Z,18.30
2018-03-11T11:45:33.046Z,18.40
2018-03-11T11:48:01.547Z,18.30
2018-03-11T11:50:31.162Z,18.30
2018-03-11T11:52:58.890Z,18.30
2018-03-11T11:55:27.406Z,18.30
2018-03-11T11:57:55.182Z,18.30
2018-03-11T12:00:22.915Z,18.30
2018-03-11T12:02:51.443Z,18.20
2018-03-11T12:05:19.207Z,18.30
2018-03-11T12:07:46.974Z,18.30
2018-03-11T12:10:14.728Z,18.40
2018-03-11T12:12:42.533Z,18.40
2018-03-11T12:15:10.284Z,18.40
2018-03-11T12:17:38.025Z,18.40
2018-03-11T12:20:05.756Z,18.40
2018-03-11T12:22:33.599Z,18.50
2018-03-11T12:25:02.121Z,18.50
2018-03-11T12:27:29.847Z,18.50
2018-03-11T12:29:58.365Z,18.70
2018-03-11T12:32:26.944Z,18.70
2018-03-11T12:34:54.691Z,18.70
2018-03-11T12:37:22.450Z,18.80
2018-03-11T12:39:50.975Z,18.80
2018-03-11T12:42:19.464Z,18.80
2018-03-11T12:44:47.207Z,18.80
2018-03-11T12:47:15.011Z,18.80
2018-03-11T12:49:42.749Z,18.80
2018-03-11T12:52:10.483Z,18.80
2018-03-11T12:54:38.217Z,18.80
2018-03-11T12:57:06.786Z,18.90
2018-03-11T12:59:34.559Z,18.80
2018-03-11T13:02:03.078Z,18.70
2018-03-11T13:04:30.876Z,18.70
2018-03-11T13:06:59.430Z,18.70
2018-03-11T13:09:27.157Z,18.70
2018-03-11T13:11:55.679Z,18.70
2018-03-11T13:14:23.511Z,18.70
2018-03-11T13:16:51.263Z,18.70
2018-03-11T13:19:19.762Z,18.70
2018-03-11T13:21:48.280Z,18.60
2018-03-11T13:24:16.023Z,18.60
2018-03-11T13:26:43.782Z,18.60
2018-03-11T13:29:11.558Z,18.60
2018-03-11T13:31:39.285Z,18.50
2018-03-11T13:34:19.796Z,18.40
2018-03-11T13:36:47.561Z,18.40
2018-03-11T13:39:27.133Z,18.40
2018-03-11T13:41:54.918Z,18.30
2018-03-11T13:44:22.698Z,18.40
2018-03-11T13:47:01.424Z,18.40
2018-03-11T13:49:29.209Z,18.30
2018-03-11T13:52:08.934Z,18.20
2018-03-11T13:54:36.774Z,18.30
2018-03-11T14:00:12.982Z,18.30
2018-03-11T14:02:40.718Z,18.30
2018-03-11T14:05:08.473Z,18.40
2018-03-11T14:07:36.194Z,18.40
2018-03-11T14:10:04.034Z,18.50
2018-03-11T14:12:31.771Z,18.40
2018-03-11T14:15:00.264Z,18.50
2018-03-11T14:17:28.750Z,18.60
2018-03-11T14:19:56.491Z,18.60
2018-03-11T14:22:24.229Z,18.60
2018-03-11T14:24:51.981Z,18.60
2018-03-11T14:27:19.841Z,18.70
2018-03-11T14:29:47.575Z,18.70
2018-03-11T14:32:15.302Z,18.70
2018-03-11T14:34:43.035Z,18.70
2018-03-11T14:37:10.758Z,18.70
2018-03-11T14:39:39.294Z,18.70
2018-03-11T14:42:07.138Z,18.60
2018-03-11T14:44:34.873Z,18.70
2018-03-11T14:47:02.598Z,18.60
2018-03-11T14:49:30.322Z,18.60
2018-03-11T14:51:58.167Z,18.60
2018-03-11T14:54:25.937Z,18.60
2018-03-11T14:56:53.690Z,18.60
2018-03-11T14:59:21.497Z,18.50
2018-03-11T15:01:49.323Z,18.50
2018-03-11T15:04:17.064Z,18.50
2018-03-11T15:06:45.575Z,18.40
2018-03-11T15:09:13.383Z,18.40
2018-03-11T15:11:41.116Z,18.40
2018-03-11T15:14:08.915Z,18.40
2018-03-11T15:16:36.713Z,18.50
2018-03-11T15:19:05.279Z,18.40
2018-03-11T15:21:33.806Z,18.40
2018-03-11T15:24:01.593Z,18.40
2018-03-11T15:26:29.317Z,18.40
2018-03-11T15:28:57.042Z,18.40
2018-03-11T15:31:24.766Z,18.40
2018-03-11T15:33:52.545Z,18.30
2018-03-11T15:36:20.265Z,18.30
2018-03-11T15:38:48.780Z,18.30
2018-03-11T15:41:16.498Z,18.30
2018-03-11T15:43:44.985Z,18.20
2018-03-11T15:46:13.478Z,18.10
2018-03-11T15:48:41.283Z,18.10
2018-03-11T15:51:09.006Z,18.20
2018-03-11T15:53:37.542Z,18.20
2018-03-11T15:56:05.289Z,18.10
2018-03-11T15:58:33.041Z,18.10
2018-03-11T16:01:00.794Z,18.20
2018-03-11T16:03:28.534Z,18.20
2018-03-11T16:05:56.336Z,18.20
2018-03-11T16:08:24.118Z,18.20
2018-03-11T16:10:51.920Z,18.20
2018-03-11T16:13:20.446Z,18.10
2018-03-11T16:15:48.347Z,18.10
2018-03-11T16:18:16.935Z,18.10
2018-03-11T16:20:44.688Z,18.00
2018-03-11T16:23:12.428Z,18.10
2018-03-11T16:25:40.162Z,18.10
2018-03-11T16:28:07.921Z,18.10
2018-03-11T16:30:35.966Z,18.10
2018-03-11T16:33:04.544Z,18.10
2018-03-11T16:35:33.066Z,18.10
2018-03-11T16:38:00.801Z,18.10
2018-03-11T16:40:29.323Z,18.10
2018-03-11T16:42:57.133Z,18.10
2018-03-11T16:45:25.813Z,18.10
2018-03-11T16:47:54.412Z,18.10
2018-03-11T16:50:23.902Z,18.00
2018-03-11T16:52:51.636Z,18.00
2018-03-11T16:55:19.367Z,18.00
2018-03-11T16:57:47.173Z,18.00
2018-03-11T17:00:14.898Z,18.00
2018-03-11T17:02:42.641Z,18.00
2018-03-11T17:05:11.266Z,17.90
2018-03-11T17:07:39.043Z,17.90
2018-03-11T17:10:06.774Z,17.80
2018-03-11T17:12:34.501Z,17.80
2018-03-11T17:15:02.321Z,17.70
2018-03-11T17:17:30.090Z,17.60
2018-03-11T17:19:57.861Z,17.60
2018-03-11T17:22:25.626Z,17.60
2018-03-11T17:24:53.354Z,17.60
2018-03-11T17:27:21.126Z,17.50
2018-03-11T17:29:48.876Z,17.50
2018-03-11T17:32:17.418Z,17.40
2018-03-11T17:34:45.147Z,17.40
2018-03-11T17:37:12.915Z,17.40
2018-03-11T17:39:41.570Z,17.50
2018-03-11T17:42:10.050Z,17.50
2018-03-11T17:44:37.779Z,17.50
2018-03-11T17:47:05.507Z,17.50
2018-03-11T17:49:36.340Z,17.40
2018-03-11T17:52:04.058Z,17.50
2018-03-11T17:54:33.496Z,17.40
2018-03-11T17:57:01.325Z,17.40
2018-03-11T17:59:29.830Z,17.40
2018-03-11T18:01:57.579Z,17.40
2018-03-11T18:04:26.075Z,17.30
2018-03-11T18:06:53.805Z,17.30
2018-03-11T18:09:22.330Z,17.20
2018-03-11T18:11:50.054Z,17.20
2018-03-11T18:14:17.854Z,17.20
2018-03-11T18:16:45.605Z,17.20
2018-03-11T18:19:14.129Z,17.20
2018-03-11T18:21:41.890Z,17.20
2018-03-11T18:24:09.630Z,17.20
2018-03-11T18:26:37.350Z,17.10
2018-03-11T18:29:05.118Z,17.10
2018-03-11T18:31:32.981Z,17.10
2018-03-11T18:34:00.714Z,17.10
2018-03-11T18:36:28.496Z,17.20
2018-03-11T18:38:57.043Z,17.20
2018-03-11T18:41:24.813Z,17.20
2018-03-11T18:43:52.550Z,17.20
2018-03-11T18:46:20.290Z,17.20
2018-03-11T18:48:48.838Z,17.20
2018-03-11T18:51:16.710Z,17.20
2018-03-11T18:53:44.497Z,17.20
2018-03-11T18:56:18.518Z,17.20
2018-03-11T18:58:47.164Z,17.20
2018-03-11T19:01:14.953Z,17.20
2018-03-11T19:03:43.159Z,17.20
2018-03-11T19:06:11.544Z,17.20
2018-03-11T19:08:39.318Z,17.20
2018-03-11T19:11:07.088Z,17.20
2018-03-11T19:13:34.867Z,17.20
2018-03-11T19:16:02.597Z,17.20
2018-03-11T19:18:30.322Z,17.10
2018-03-11T19:20:58.056Z,17.10
2018-03-11T19:23:25.823Z,17.10
2018-03-11T19:25:53.586Z,17.10
2018-03-11T19:28:21.314Z,17.10
2018-03-11T19:30:49.042Z,17.10
2018-03-11T19:33:16.777Z,17.10
2018-03-11T19:35:44.506Z,17.10
2018-03-11T19:38:12.300Z,17.10
2018-03-11T19:40:40.038Z,17.10
2018-03-11T19:43:07.842Z,17.10
2018-03-11T19:45:35.575Z,17.10
2018-03-11T19:48:03.327Z,17.10
2018-03-11T19:50:31.063Z,17.10
2018-03-11T19:52:58.822Z,17.10
2018-03-11T19:55:26.578Z,17.10
2018-03-11T19:57:54.327Z,17.10
2018-03-11T20:00:22.054Z,17.00
2018-03-11T20:02:49.850Z,17.00
2018-03-11T20:05:17.950Z,17.00
2018-03-11T20:07:45.781Z,17.00
2018-03-11T20:10:13.535Z,17.00
2018-03-11T20:12:41.274Z,16.90
2018-03-11T20:15:08.995Z,16.90
2018-03-11T20:17:36.763Z,16.90
2018-03-11T20:20:04.566Z,16.90
2018-03-11T20:22:32.341Z,16.90
2018-03-11T20:25:00.135Z,16.90
2018-03-11T20:27:28.692Z,16.80
2018-03-11T20:29:56.426Z,16.80
2018-03-11T20:32:24.920Z,16.70
2018-03-11T20:34:52.649Z,16.70
2018-03-11T20:37:21.206Z,16.70
2018-03-11T20:39:48.938Z,16.70
2018-03-11T20:42:16.751Z,16.70
2018-03-11T20:44:44.466Z,16.70
2018-03-11T20:47:12.205Z,16.70
2018-03-11T20:49:40.702Z,16.70
2018-03-11T20:52:08.478Z,16.80
2018-03-11T20:54:36.209Z,16.80
2018-03-11T20:57:04.730Z,16.90
2018-03-11T20:59:32.475Z,16.80
2018-03-11T21:02:00.301Z,16.90
2018-03-11T21:04:28.818Z,16.90
2018-03-11T21:06:56.542Z,16.90
2018-03-11T21:09:24.268Z,16.90
2018-03-11T21:11:51.990Z,16.90
2018-03-11T21:14:19.759Z,16.90
2018-03-11T21:16:48.317Z,16.90
2018-03-11T21:19:16.058Z,16.90
2018-03-11T21:21:43.782Z,16.90
2018-03-11T21:24:11.616Z,16.90
2018-03-11T21:26:40.149Z,16.80
2018-03-11T21:29:07.869Z,16.80
2018-03-11T21:31:35.630Z,16.80
2018-03-11T21:34:04.211Z,16.90
2018-03-11T21:36:32.732Z,16.80
2018-03-11T21:39:00.494Z,16.80
2018-03-11T21:41:28.237Z,16.80
2018-03-11T21:43:55.971Z,16.80
2018-03-11T21:46:23.702Z,16.70
2018-03-11T21:48:51.470Z,16.80
2018-03-11T21:51:19.238Z,16.70
2018-03-11T21:53:47.002Z,16.80
2018-03-11T21:56:14.790Z,16.70
2018-03-11T21:58:43.306Z,16.70
2018-03-11T22:01:11.069Z,16.70
2018-03-11T22:03:38.853Z,16.70
2018-03-11T22:06:06.613Z,16.60
2018-03-11T22:08:34.337Z,16.60
2018-03-11T22:11:02.833Z,16.60
2018-03-11T22:13:31.327Z,16.60
2018-03-11T22:15:59.122Z,16.60
2018-03-11T22:18:26.869Z,16.60
2018-03-11T22:20:54.593Z,16.50
2018-03-11T22:23:23.086Z,16.50
2018-03-11T22:25:51.585Z,16.50
2018-03-11T22:28:19.318Z,16.40
2018-03-11T22:30:47.859Z,16.40
2018-03-11T22:33:15.766Z,16.40
2018-03-11T22:35:44.297Z,16.40
2018-03-11T22:38:12.026Z,16.40
2018-03-11T22:40:40.517Z,16.40
2018-03-11T22:43:08.260Z,16.40
2018-03-11T22:45:36.055Z,16.40
2018-03-11T22:48:03.802Z,16.40
2018-03-11T22:50:31.539Z,16.30
2018-03-11T22:53:00.048Z,16.30
2018-03-11T22:55:27.777Z,16.30
2018-03-11T22:57:55.510Z,16.30
2018-03-11T23:00:23.290Z,16.30
2018-03-11T23:02:51.022Z,16.30
2018-03-11T23:05:18.898Z,16.40
2018-03-11T23:07:46.625Z,16.30
2018-03-11T23:10:15.595Z,16.40
2018-03-11T23:12:43.342Z,16.40
2018-03-11T23:15:11.085Z,16.40
2018-03-11T23:17:38.881Z,16.40
2018-03-11T23:20:06.767Z,16.40
2018-03-11T23:22:35.252Z,16.40
2018-03-11T23:25:03.754Z,16.30
2018-03-11T23:27:31.502Z,16.30
2018-03-11T23:30:00.019Z,16.30
2018-03-11T23:32:27.757Z,16.30
2018-03-11T23:34:55.481Z,16.30
2018-03-11T23:37:23.223Z,16.30
2018-03-11T23:39:50.982Z,16.20
2018-03-11T23:42:18.713Z,16.20
2018-03-11T23:44:46.450Z,16.20
2018-03-11T23:47:14.967Z,16.10
2018-03-11T23:49:42.699Z,16.10
2018-03-11T23:52:11.279Z,16.20
2018-03-11T23:54:39.757Z,16.20
2018-03-11T23:57:08.365Z,16.20
2018-03-11T23:59:36.125Z,16.20
